createdAt,value
2017-10-22T00:01:23.995Z,2.80
2017-10-22T00:01:28.995Z,2.82
2017-10-22T00:01:34.028Z,2.90
2017-10-22T00:01:38.268Z,2.90
2017-10-22T00:01:42.520Z,2.80
2017-10-22T00:01:47.563Z,2.80
2017-10-22T00:01:51.806Z,2.90
2017-10-22T00:01:56.048Z,2.90
2017-10-22T00:02:00.292Z,3.00
2017-10-22T00:02:04.549Z,3.03
2017-10-22T00:02:08.864Z,3.00
2017-10-22T00:02:13.096Z,3.05
2017-10-22T00:02:17.364Z,3.05
2017-10-22T00:02:21.629Z,3.00
2017-10-22T00:02:25.879Z,2.90
2017-10-22T00:02:30.133Z,2.80
2017-10-22T00:02:34.375Z,2.80
2017-10-22T00:02:38.625Z,2.80
2017-10-22T00:02:43.633Z,2.80
2017-10-22T00:02:47.885Z,2.80
2017-10-22T00:02:52.170Z,2.80
2017-10-22T00:02:57.171Z,2.67
2017-10-22T00:03:01.504Z,2.70
2017-10-22T00:03:06.569Z,3.00
2017-10-22T00:03:10.841Z,3.20
2017-10-22T00:03:15.125Z,3.20
2017-10-22T00:03:19.367Z,3.20
2017-10-22T00:03:23.689Z,3.25
2017-10-22T00:03:28.727Z,3.40
2017-10-22T00:03:33.734Z,3.30
2017-10-22T00:03:38.727Z,3.37
2017-10-22T00:03:43.066Z,3.30
2017-10-22T00:03:47.355Z,3.37
2017-10-22T00:03:52.363Z,3.30
2017-10-22T00:03:57.464Z,3.37
2017-10-22T00:04:01.707Z,3.30
2017-10-22T00:04:06.716Z,3.10
2017-10-22T00:04:10.991Z,2.78
2017-10-22T00:04:15.225Z,2.70
2017-10-22T00:04:19.485Z,2.80
2017-10-22T00:04:23.729Z,2.80
2017-10-22T00:04:28.004Z,2.77
2017-10-22T00:04:33.039Z,2.90
2017-10-22T00:04:38.078Z,2.93
2017-10-22T00:04:42.312Z,3.00
2017-10-22T00:04:46.554Z,3.05
2017-10-22T00:04:50.786Z,3.00
2017-10-22T00:04:55.031Z,3.00
2017-10-22T00:04:59.272Z,3.00
2017-10-22T00:05:03.540Z,3.00
2017-10-22T00:05:08.563Z,3.10
2017-10-22T00:05:13.587Z,3.10
2017-10-22T00:05:18.603Z,3.10
2017-10-22T00:05:23.640Z,3.10
2017-10-22T00:05:28.660Z,3.07
2017-10-22T00:05:32.923Z,2.97
2017-10-22T00:05:37.235Z,2.80
2017-10-22T00:05:42.252Z,2.80
2017-10-22T00:05:47.251Z,2.73
2017-10-22T00:05:51.571Z,3.07
2017-10-22T00:05:56.595Z,3.10
2017-10-22T00:06:01.620Z,3.03
2017-10-22T00:06:07.440Z,3.10
2017-10-22T00:06:12.469Z,3.20
2017-10-22T00:06:17.517Z,3.27
2017-10-22T00:06:21.763Z,3.20
2017-10-22T00:06:26.015Z,3.20
2017-10-22T00:06:30.265Z,3.30
2017-10-22T00:06:34.528Z,3.40
2017-10-22T00:06:38.745Z,3.60
2017-10-22T00:06:42.973Z,3.60
2017-10-22T00:06:47.987Z,3.45
2017-10-22T00:06:52.222Z,3.30
2017-10-22T00:06:56.469Z,3.30
2017-10-22T00:07:00.745Z,3.25
2017-10-22T00:07:04.996Z,3.25
2017-10-22T00:07:09.407Z,3.10
2017-10-22T00:07:13.700Z,3.10
2017-10-22T00:07:18.702Z,3.00
2017-10-22T00:07:22.990Z,2.90
2017-10-22T00:07:27.242Z,2.90
2017-10-22T00:07:31.499Z,2.80
2017-10-22T00:07:35.739Z,2.90
2017-10-22T00:07:40.726Z,2.70
2017-10-22T00:07:44.968Z,2.70
2017-10-22T00:07:49.220Z,2.70
2017-10-22T00:07:53.487Z,2.70
2017-10-22T00:07:57.784Z,2.70
2017-10-22T00:08:02.048Z,2.63
2017-10-22T00:08:07.045Z,2.70
2017-10-22T00:08:11.349Z,2.80
2017-10-22T00:08:15.582Z,2.85
2017-10-22T00:08:19.867Z,2.90
2017-10-22T00:08:24.894Z,2.97
2017-10-22T00:08:29.151Z,3.10
2017-10-22T00:08:33.400Z,3.05
2017-10-22T00:08:37.695Z,2.90
2017-10-22T00:08:42.703Z,3.00
2017-10-22T00:08:47.749Z,3.00
2017-10-22T00:08:52.842Z,2.97
2017-10-22T00:08:57.893Z,3.03
2017-10-22T00:09:02.200Z,3.13
2017-10-22T00:09:06.434Z,3.10
2017-10-22T00:09:10.708Z,3.10
2017-10-22T00:09:14.943Z,3.10
2017-10-22T00:09:19.204Z,3.15
2017-10-22T00:09:23.430Z,3.15
2017-10-22T00:09:27.678Z,3.00
2017-10-22T00:09:31.931Z,3.20
2017-10-22T00:09:36.171Z,3.20
2017-10-22T00:09:40.406Z,3.10
2017-10-22T00:09:44.717Z,3.10
2017-10-22T00:09:48.964Z,3.10
2017-10-22T00:09:54.013Z,3.10
2017-10-22T00:09:58.277Z,3.00
2017-10-22T00:10:02.571Z,3.10
2017-10-22T00:10:06.781Z,3.10
2017-10-22T00:10:11.793Z,3.20
2017-10-22T00:10:16.796Z,3.20
2017-10-22T00:10:21.814Z,3.17
2017-10-22T00:10:26.064Z,3.20
2017-10-22T00:10:30.334Z,3.13
2017-10-22T00:10:35.365Z,3.20
2017-10-22T00:10:39.621Z,3.20
2017-10-22T00:10:43.866Z,3.20
2017-10-22T00:10:48.126Z,3.20
2017-10-22T00:10:52.396Z,3.17
2017-10-22T00:10:56.626Z,3.40
2017-10-22T00:11:00.892Z,3.20
2017-10-22T00:11:05.159Z,3.10
2017-10-22T00:11:10.376Z,3.10
2017-10-22T00:11:15.398Z,3.03
2017-10-22T00:11:20.405Z,2.93
2017-10-22T00:11:25.414Z,3.00
2017-10-22T00:11:29.677Z,2.90
2017-10-22T00:11:33.905Z,2.85
2017-10-22T00:11:38.287Z,2.90
2017-10-22T00:11:42.525Z,2.90
2017-10-22T00:11:47.533Z,2.90
2017-10-22T00:11:51.772Z,2.90
2017-10-22T00:11:56.028Z,2.80
2017-10-22T00:12:00.253Z,2.90
2017-10-22T00:12:05.295Z,3.00
2017-10-22T00:12:09.542Z,3.00
2017-10-22T00:12:13.800Z,3.00
2017-10-22T00:12:18.066Z,3.10
2017-10-22T00:12:23.080Z,3.10
2017-10-22T00:12:28.100Z,3.07
2017-10-22T00:12:32.339Z,3.20
2017-10-22T00:12:36.573Z,3.10
2017-10-22T00:12:41.589Z,3.10
2017-10-22T00:12:45.834Z,2.93
2017-10-22T00:12:50.834Z,2.90
2017-10-22T00:12:55.859Z,2.90
2017-10-22T00:13:00.866Z,2.90
2017-10-22T00:13:05.136Z,2.87
2017-10-22T00:13:09.388Z,2.90
2017-10-22T00:13:13.617Z,2.90
2017-10-22T00:13:17.933Z,3.00
2017-10-22T00:13:22.207Z,3.00
2017-10-22T00:13:26.431Z,3.00
2017-10-22T00:13:30.780Z,2.93
2017-10-22T00:13:35.791Z,3.15
2017-10-22T00:13:40.803Z,3.20
2017-10-22T00:13:45.032Z,3.20
2017-10-22T00:13:49.281Z,3.20
2017-10-22T00:13:53.542Z,3.30
2017-10-22T00:13:58.617Z,3.20
2017-10-22T00:14:02.859Z,3.30
2017-10-22T00:14:07.105Z,3.30
2017-10-22T00:14:11.477Z,3.20
2017-10-22T00:14:15.714Z,3.20
2017-10-22T00:14:19.969Z,3.05
2017-10-22T00:14:24.252Z,3.00
2017-10-22T00:14:29.264Z,3.10
2017-10-22T00:14:34.261Z,2.93
2017-10-22T00:14:39.318Z,2.80
2017-10-22T00:14:43.578Z,2.80
2017-10-22T00:14:47.832Z,2.90
2017-10-22T00:14:52.079Z,2.80
2017-10-22T00:14:56.337Z,2.80
2017-10-22T00:15:00.597Z,2.80
2017-10-22T00:15:04.893Z,2.80
2017-10-22T00:15:09.928Z,2.70
2017-10-22T00:15:14.200Z,2.70
2017-10-22T00:15:19.216Z,2.70
2017-10-22T00:15:23.463Z,2.80
2017-10-22T00:15:28.478Z,2.80
2017-10-22T00:15:32.723Z,2.80
2017-10-22T00:15:36.981Z,2.80
2017-10-22T00:15:41.239Z,2.87
2017-10-22T00:15:45.471Z,2.90
2017-10-22T00:15:49.710Z,2.90
2017-10-22T00:15:53.944Z,2.87
2017-10-22T00:15:58.958Z,2.80
2017-10-22T00:16:03.219Z,2.80
2017-10-22T00:16:07.500Z,2.90
2017-10-22T00:16:11.743Z,3.00
2017-10-22T00:16:15.992Z,2.90
2017-10-22T00:16:21.019Z,2.90
2017-10-22T00:16:25.248Z,2.87
2017-10-22T00:16:29.486Z,2.80
2017-10-22T00:16:34.503Z,2.80
2017-10-22T00:16:38.737Z,2.80
2017-10-22T00:16:42.999Z,2.70
2017-10-22T00:16:47.985Z,2.70
2017-10-22T00:16:52.237Z,2.70
2017-10-22T00:16:56.509Z,2.70
2017-10-22T00:17:00.755Z,2.57
2017-10-22T00:17:05.039Z,2.60
2017-10-22T00:17:09.272Z,2.70
2017-10-22T00:17:13.507Z,2.70
2017-10-22T00:17:17.767Z,2.80
2017-10-22T00:17:22.856Z,2.80
2017-10-22T00:17:27.150Z,2.80
2017-10-22T00:17:32.167Z,2.90
2017-10-22T00:17:37.199Z,2.90
2017-10-22T00:17:41.465Z,2.87
2017-10-22T00:17:46.476Z,3.05
2017-10-22T00:17:50.730Z,3.30
2017-10-22T00:17:54.966Z,3.30
2017-10-22T00:17:59.207Z,3.30
2017-10-22T00:18:04.218Z,3.27
2017-10-22T00:18:09.216Z,3.07
2017-10-22T00:18:13.471Z,3.10
2017-10-22T00:18:17.743Z,3.00
2017-10-22T00:18:21.987Z,3.00
2017-10-22T00:18:26.252Z,2.90
2017-10-22T00:18:31.250Z,2.90
2017-10-22T00:18:36.268Z,2.90
2017-10-22T00:18:41.274Z,2.83
2017-10-22T00:18:45.505Z,2.77
2017-10-22T00:18:49.760Z,2.45
2017-10-22T00:18:54.003Z,2.50
2017-10-22T00:18:58.249Z,2.60
2017-10-22T00:19:02.493Z,2.65
2017-10-22T00:19:07.570Z,2.70
2017-10-22T00:19:11.862Z,2.60
2017-10-22T00:19:16.107Z,2.70
2017-10-22T00:19:20.367Z,2.70
2017-10-22T00:19:24.742Z,2.70
2017-10-22T00:19:29.001Z,2.80
2017-10-22T00:19:34.013Z,2.90
2017-10-22T00:19:38.257Z,2.90
2017-10-22T00:19:42.496Z,2.90
2017-10-22T00:19:46.747Z,2.90
2017-10-22T00:19:50.985Z,3.07
2017-10-22T00:19:55.221Z,3.00
2017-10-22T00:20:00.248Z,2.95
2017-10-22T00:20:04.477Z,2.97
2017-10-22T00:20:08.715Z,2.90
2017-10-22T00:20:12.960Z,3.00
2017-10-22T00:20:17.188Z,3.00
2017-10-22T00:20:21.430Z,3.20
2017-10-22T00:20:25.711Z,3.45
2017-10-22T00:20:29.979Z,3.30
2017-10-22T00:20:34.296Z,3.20
2017-10-22T00:20:38.530Z,3.25
2017-10-22T00:20:42.772Z,3.50
2017-10-22T00:20:47.050Z,3.60
2017-10-22T00:20:52.060Z,3.55
2017-10-22T00:20:57.070Z,3.60
2017-10-22T00:21:02.135Z,3.60
2017-10-22T00:21:06.415Z,3.60
2017-10-22T00:21:11.401Z,3.50
2017-10-22T00:21:15.678Z,3.40
2017-10-22T00:21:19.971Z,3.35
2017-10-22T00:21:24.212Z,3.00
2017-10-22T00:21:28.501Z,3.00
2017-10-22T00:21:32.794Z,3.00
2017-10-22T00:21:37.059Z,3.05
2017-10-22T00:21:41.339Z,2.70
2017-10-22T00:21:45.699Z,2.70
2017-10-22T00:21:49.903Z,2.65
2017-10-22T00:21:54.146Z,2.50
2017-10-22T00:21:58.384Z,2.60
2017-10-22T00:22:02.643Z,2.70
2017-10-22T00:22:06.919Z,2.70
2017-10-22T00:22:12.027Z,2.70
2017-10-22T00:22:16.257Z,2.70
2017-10-22T00:22:21.274Z,2.70
2017-10-22T00:22:26.275Z,2.80
2017-10-22T00:22:31.283Z,2.80
2017-10-22T00:22:35.519Z,2.80
2017-10-22T00:22:39.768Z,2.90
2017-10-22T00:22:44.003Z,2.85
2017-10-22T00:22:49.034Z,2.90
2017-10-22T00:22:54.004Z,2.80
2017-10-22T00:22:58.276Z,2.80
2017-10-22T00:23:02.550Z,2.90
2017-10-22T00:23:07.562Z,3.00
2017-10-22T00:23:11.794Z,3.10
2017-10-22T00:23:16.030Z,3.10
2017-10-22T00:23:20.277Z,3.10
2017-10-22T00:23:24.537Z,3.00
2017-10-22T00:23:28.787Z,3.00
2017-10-22T00:23:33.032Z,3.00
2017-10-22T00:23:37.283Z,3.00
2017-10-22T00:23:41.587Z,2.95
2017-10-22T00:23:45.829Z,3.10
2017-10-22T00:23:50.082Z,3.10
2017-10-22T00:23:54.305Z,3.20
2017-10-22T00:23:58.584Z,3.20
2017-10-22T00:24:02.833Z,3.00
2017-10-22T00:24:07.070Z,3.00
2017-10-22T00:24:11.318Z,2.95
2017-10-22T00:24:15.558Z,2.90
2017-10-22T00:24:20.556Z,2.90
2017-10-22T00:24:24.816Z,2.90
2017-10-22T00:24:29.071Z,2.80
2017-10-22T00:24:34.120Z,2.80
2017-10-22T00:24:38.357Z,2.83
2017-10-22T00:24:42.598Z,2.90
2017-10-22T00:24:47.641Z,2.70
2017-10-22T00:24:51.887Z,2.70
2017-10-22T00:24:56.132Z,2.70
2017-10-22T00:25:00.375Z,2.70
2017-10-22T00:25:04.616Z,2.73
2017-10-22T00:25:09.636Z,2.70
2017-10-22T00:25:14.662Z,2.83
2017-10-22T00:25:18.987Z,2.90
2017-10-22T00:25:24.010Z,2.90
2017-10-22T00:25:28.996Z,3.00
2017-10-22T00:25:33.309Z,3.10
2017-10-22T00:25:37.561Z,3.10
2017-10-22T00:25:41.803Z,3.00
2017-10-22T00:25:46.123Z,3.00
2017-10-22T00:25:50.352Z,3.10
2017-10-22T00:25:54.623Z,3.00
2017-10-22T00:25:58.904Z,3.00
2017-10-22T00:26:03.156Z,3.00
2017-10-22T00:26:07.413Z,2.90
2017-10-22T00:26:11.690Z,3.00
2017-10-22T00:26:16.694Z,2.90
2017-10-22T00:26:20.981Z,2.90
2017-10-22T00:26:25.276Z,2.90
2017-10-22T00:26:30.335Z,2.80
2017-10-22T00:26:35.340Z,2.80
2017-10-22T00:26:40.909Z,2.90
2017-10-22T00:26:46.803Z,2.90
2017-10-22T00:26:51.818Z,2.90
2017-10-22T00:26:56.060Z,2.97
2017-10-22T00:27:00.327Z,2.90
2017-10-22T00:27:05.406Z,2.90
2017-10-22T00:27:09.652Z,2.90
2017-10-22T00:27:14.654Z,2.85
2017-10-22T00:27:18.917Z,3.00
2017-10-22T00:27:23.166Z,2.93
2017-10-22T00:27:27.397Z,2.95
2017-10-22T00:27:31.707Z,3.00
2017-10-22T00:27:35.950Z,2.97
2017-10-22T00:27:40.211Z,2.90
2017-10-22T00:27:44.471Z,2.85
2017-10-22T00:27:48.741Z,2.80
2017-10-22T00:27:53.055Z,2.80
2017-10-22T00:27:57.328Z,3.00
2017-10-22T00:28:01.581Z,3.00
2017-10-22T00:28:05.900Z,3.25
2017-10-22T00:28:10.149Z,3.20
2017-10-22T00:28:15.174Z,3.15
2017-10-22T00:28:19.443Z,3.03
2017-10-22T00:28:23.716Z,3.10
2017-10-22T00:28:27.961Z,3.20
2017-10-22T00:28:32.204Z,3.10
2017-10-22T00:28:36.445Z,3.15
2017-10-22T00:28:40.699Z,3.20
2017-10-22T00:28:45.725Z,3.30
2017-10-22T00:28:49.994Z,3.40
2017-10-22T00:28:54.273Z,3.40
2017-10-22T00:28:58.511Z,3.30
2017-10-22T00:29:03.502Z,3.27
2017-10-22T00:29:07.758Z,3.00
2017-10-22T00:29:12.023Z,3.00
2017-10-22T00:29:17.148Z,2.95
2017-10-22T00:29:22.152Z,2.80
2017-10-22T00:29:26.413Z,2.93
2017-10-22T00:29:30.772Z,3.00
2017-10-22T00:29:35.812Z,3.00
2017-10-22T00:29:40.799Z,3.00
2017-10-22T00:29:45.846Z,2.90
2017-10-22T00:29:50.087Z,2.80
2017-10-22T00:29:54.331Z,2.60
2017-10-22T00:29:59.421Z,2.47
2017-10-22T00:30:03.673Z,2.50
2017-10-22T00:30:08.007Z,2.50
2017-10-22T00:30:12.264Z,2.60
2017-10-22T00:30:16.497Z,2.70
2017-10-22T00:30:20.736Z,2.80
2017-10-22T00:30:25.017Z,2.65
2017-10-22T00:30:30.097Z,2.60
2017-10-22T00:30:34.356Z,2.60
2017-10-22T00:30:42.094Z,2.50
2017-10-22T00:30:47.441Z,2.56
2017-10-22T00:30:51.682Z,2.53
2017-10-22T00:30:55.902Z,2.60
2017-10-22T00:31:00.866Z,2.60
2017-10-22T00:31:05.093Z,2.60
2017-10-22T00:31:09.335Z,2.65
2017-10-22T00:31:13.652Z,2.50
2017-10-22T00:31:17.927Z,2.55
2017-10-22T00:31:22.208Z,2.53
2017-10-22T00:31:26.440Z,2.50
2017-10-22T00:31:30.669Z,2.45
2017-10-22T00:31:34.917Z,2.45
2017-10-22T00:31:39.247Z,2.60
2017-10-22T00:31:43.463Z,2.50
2017-10-22T00:31:47.686Z,2.60
2017-10-22T00:31:52.688Z,2.60
2017-10-22T00:31:56.939Z,2.70
2017-10-22T00:32:01.187Z,2.70
2017-10-22T00:32:05.504Z,2.75
2017-10-22T00:32:09.888Z,2.75
2017-10-22T00:32:16.517Z,2.80
2017-10-22T00:32:20.762Z,2.67
2017-10-22T00:32:25.930Z,2.70
2017-10-22T00:32:30.177Z,2.70
2017-10-22T00:32:34.427Z,2.70
2017-10-22T00:32:41.671Z,2.60
2017-10-22T00:32:46.657Z,2.70
2017-10-22T00:32:50.903Z,2.73
2017-10-22T00:32:55.183Z,2.70
2017-10-22T00:33:00.195Z,2.70
2017-10-22T00:33:05.256Z,2.53
2017-10-22T00:33:09.509Z,2.53
2017-10-22T00:33:13.783Z,2.50
2017-10-22T00:33:18.064Z,2.60
2017-10-22T00:33:22.333Z,2.60
2017-10-22T00:33:26.679Z,2.60
2017-10-22T00:33:30.972Z,2.75
2017-10-22T00:33:35.225Z,2.80
2017-10-22T00:33:40.257Z,2.90
2017-10-22T00:33:44.511Z,2.87
2017-10-22T00:33:48.749Z,2.90
2017-10-22T00:33:53.764Z,2.90
2017-10-22T00:33:58.807Z,2.90
2017-10-22T00:34:03.791Z,3.00
2017-10-22T00:34:08.812Z,2.90
2017-10-22T00:34:13.836Z,2.90
2017-10-22T00:34:18.855Z,3.00
2017-10-22T00:34:23.104Z,3.00
2017-10-22T00:34:27.360Z,3.00
2017-10-22T00:34:32.369Z,3.00
2017-10-22T00:34:37.387Z,2.90
2017-10-22T00:34:42.385Z,2.87
2017-10-22T00:34:46.641Z,2.80
2017-10-22T00:34:50.878Z,2.80
2017-10-22T00:34:55.113Z,2.80
2017-10-22T00:35:00.156Z,2.75
2017-10-22T00:35:04.403Z,2.80
2017-10-22T00:35:08.652Z,2.90
2017-10-22T00:35:13.047Z,2.85
2017-10-22T00:35:17.816Z,2.70
2017-10-22T00:35:22.945Z,2.70
2017-10-22T00:35:27.188Z,2.70
2017-10-22T00:35:31.439Z,2.75
2017-10-22T00:35:36.456Z,2.90
2017-10-22T00:35:40.694Z,2.90
2017-10-22T00:35:44.977Z,3.00
2017-10-22T00:35:49.244Z,2.95
2017-10-22T00:35:53.481Z,3.10
2017-10-22T00:35:58.492Z,3.20
2017-10-22T00:36:02.751Z,3.17
2017-10-22T00:36:06.986Z,3.47
2017-10-22T00:36:11.272Z,3.50
2017-10-22T00:36:15.517Z,3.60
2017-10-22T00:36:19.811Z,3.83
2017-10-22T00:36:24.794Z,3.70
2017-10-22T00:36:29.039Z,3.73
2017-10-22T00:36:33.275Z,3.70
2017-10-22T00:36:37.574Z,3.70
2017-10-22T00:36:41.835Z,3.60
2017-10-22T00:36:46.096Z,3.60
2017-10-22T00:36:50.318Z,3.65
2017-10-22T00:36:55.361Z,3.60
2017-10-22T00:36:59.619Z,3.60
2017-10-22T00:37:03.890Z,3.35
2017-10-22T00:37:08.146Z,3.05
2017-10-22T00:37:13.213Z,3.15
2017-10-22T00:37:17.462Z,3.00
2017-10-22T00:37:21.746Z,2.93
2017-10-22T00:37:26.778Z,3.00
2017-10-22T00:37:31.082Z,2.83
2017-10-22T00:37:36.090Z,2.90
2017-10-22T00:37:41.115Z,3.17
2017-10-22T00:37:45.349Z,3.23
2017-10-22T00:37:49.634Z,3.17
2017-10-22T00:37:54.685Z,3.10
2017-10-22T00:37:58.938Z,3.10
2017-10-22T00:38:03.177Z,3.10
2017-10-22T00:38:07.428Z,3.30
2017-10-22T00:38:11.690Z,3.20
2017-10-22T00:38:15.925Z,3.20
2017-10-22T00:38:21.013Z,3.30
2017-10-22T00:38:25.231Z,3.30
2017-10-22T00:38:29.500Z,3.30
2017-10-22T00:38:33.808Z,3.30
2017-10-22T00:38:38.128Z,3.05
2017-10-22T00:38:42.439Z,2.90
2017-10-22T00:38:46.686Z,2.90
2017-10-22T00:38:50.967Z,2.90
2017-10-22T00:38:55.248Z,2.90
2017-10-22T00:39:00.328Z,2.80
2017-10-22T00:39:04.565Z,2.77
2017-10-22T00:39:09.595Z,2.70
2017-10-22T00:39:14.654Z,2.60
2017-10-22T00:39:18.884Z,2.50
2017-10-22T00:39:23.154Z,2.53
2017-10-22T00:39:27.393Z,2.50
2017-10-22T00:39:32.424Z,2.45
2017-10-22T00:39:37.451Z,2.40
2017-10-22T00:39:41.665Z,2.53
2017-10-22T00:39:45.897Z,2.60
2017-10-22T00:39:50.138Z,2.60
2017-10-22T00:39:55.172Z,2.65
2017-10-22T00:39:59.385Z,2.70
2017-10-22T00:40:03.644Z,2.70
2017-10-22T00:40:07.893Z,2.73
2017-10-22T00:40:12.139Z,2.80
2017-10-22T00:40:16.468Z,2.90
2017-10-22T00:40:21.482Z,2.80
2017-10-22T00:40:26.520Z,2.70
2017-10-22T00:40:31.516Z,2.70
2017-10-22T00:40:36.555Z,2.67
2017-10-22T00:40:40.806Z,2.50
2017-10-22T00:40:45.037Z,2.50
2017-10-22T00:40:50.049Z,2.50
2017-10-22T00:40:54.352Z,2.40
2017-10-22T00:40:59.346Z,2.40
2017-10-22T00:41:03.645Z,2.50
2017-10-22T00:41:07.905Z,2.45
2017-10-22T00:41:12.139Z,2.40
2017-10-22T00:41:16.435Z,2.40
2017-10-22T00:41:21.218Z,2.40
2017-10-22T00:41:26.207Z,2.40
2017-10-22T00:41:31.224Z,2.45
2017-10-22T00:41:36.287Z,2.53
2017-10-22T00:41:40.560Z,2.60
2017-10-22T00:41:44.801Z,2.70
2017-10-22T00:41:49.034Z,2.70
2017-10-22T00:41:54.082Z,2.80
2017-10-22T00:41:58.329Z,2.83
2017-10-22T00:42:02.589Z,2.95
2017-10-22T00:42:06.870Z,3.10
2017-10-22T00:42:11.883Z,3.10
2017-10-22T00:42:16.146Z,3.13
2017-10-22T00:42:21.392Z,3.20
2017-10-22T00:42:25.638Z,3.20
2017-10-22T00:42:29.886Z,3.20
2017-10-22T00:42:34.906Z,3.10
2017-10-22T00:42:39.148Z,3.20
2017-10-22T00:42:43.434Z,3.20
2017-10-22T00:42:48.454Z,3.15
2017-10-22T00:42:53.471Z,3.20
2017-10-22T00:42:57.710Z,3.13
2017-10-22T00:43:01.947Z,2.90
2017-10-22T00:43:06.227Z,2.77
2017-10-22T00:43:11.327Z,2.80
2017-10-22T00:43:15.591Z,2.73
2017-10-22T00:43:20.611Z,2.70
2017-10-22T00:44:32.245Z,3.00
2017-10-22T00:44:37.394Z,2.90
2017-10-22T00:44:42.422Z,2.90
2017-10-22T00:44:46.686Z,2.87
2017-10-22T00:44:50.930Z,3.00
2017-10-22T00:44:55.175Z,2.80
2017-10-22T00:44:59.396Z,2.80
2017-10-22T00:45:03.680Z,2.77
2017-10-22T00:45:07.962Z,2.80
2017-10-22T00:45:12.192Z,2.80
2017-10-22T00:45:16.457Z,2.70
2017-10-22T00:45:20.710Z,2.70
2017-10-22T00:45:25.005Z,2.70
2017-10-22T00:45:29.266Z,2.70
2017-10-22T00:45:33.522Z,2.70
2017-10-22T00:45:37.867Z,2.70
2017-10-22T00:45:42.179Z,2.80
2017-10-22T00:45:46.419Z,2.77
2017-10-22T00:45:51.633Z,2.60
2017-10-22T00:45:55.920Z,2.60
2017-10-22T00:46:00.171Z,2.60
2017-10-22T00:46:04.423Z,2.60
2017-10-22T00:46:08.706Z,2.50
2017-10-22T00:46:12.912Z,2.50
2017-10-22T00:46:17.172Z,2.60
2017-10-22T00:46:21.500Z,2.70
2017-10-22T00:46:26.503Z,2.80
2017-10-22T00:46:30.751Z,2.70
2017-10-22T00:46:35.048Z,2.70
2017-10-22T00:46:39.303Z,2.70
2017-10-22T00:46:43.533Z,2.80
2017-10-22T00:46:47.866Z,2.80
2017-10-22T00:46:52.110Z,2.90
2017-10-22T00:46:56.402Z,3.05
2017-10-22T00:47:00.633Z,3.15
2017-10-22T00:47:04.876Z,3.20
2017-10-22T00:47:09.220Z,3.27
2017-10-22T00:47:14.257Z,3.30
2017-10-22T00:47:18.509Z,3.13
2017-10-22T00:47:23.504Z,3.10
2017-10-22T00:47:28.528Z,2.97
2017-10-22T00:47:33.546Z,2.90
2017-10-22T00:47:37.915Z,2.90
2017-10-22T00:47:42.218Z,2.77
2017-10-22T00:47:46.461Z,2.70
2017-10-22T00:47:50.750Z,2.70
2017-10-22T00:47:55.055Z,2.43
2017-10-22T00:47:59.297Z,2.40
2017-10-22T00:48:03.544Z,2.30
2017-10-22T00:48:07.789Z,2.30
2017-10-22T00:48:12.042Z,2.30
2017-10-22T00:48:17.070Z,2.30
2017-10-22T00:48:22.088Z,2.37
2017-10-22T00:48:26.351Z,2.50
2017-10-22T00:48:30.581Z,2.50
2017-10-22T00:48:35.613Z,2.50
2017-10-22T00:48:39.861Z,2.60
2017-10-22T00:48:44.121Z,2.60
2017-10-22T00:48:48.436Z,2.70
2017-10-22T00:48:52.699Z,3.00
2017-10-22T00:48:56.933Z,3.10
2017-10-22T00:49:01.223Z,3.00
2017-10-22T00:49:06.230Z,2.95
2017-10-22T00:49:11.279Z,2.90
2017-10-22T00:49:15.508Z,3.00
2017-10-22T00:49:19.747Z,3.00
2017-10-22T00:49:24.768Z,2.90
2017-10-22T00:49:29.015Z,2.90
2017-10-22T00:49:33.255Z,2.95
2017-10-22T00:49:38.284Z,2.97
2017-10-22T00:49:43.282Z,2.87
2017-10-22T00:49:47.559Z,2.80
2017-10-22T00:49:51.840Z,2.50
2017-10-22T00:49:56.091Z,2.40
2017-10-22T00:50:00.337Z,2.30
2017-10-22T00:50:04.573Z,2.30
2017-10-22T00:50:08.798Z,2.30
2017-10-22T00:50:13.804Z,2.20
2017-10-22T00:50:18.052Z,2.20
2017-10-22T00:50:22.285Z,2.07
2017-10-22T00:50:26.560Z,2.10
2017-10-22T00:50:30.805Z,2.10
2017-10-22T00:50:35.066Z,2.10
2017-10-22T00:50:39.305Z,2.10
2017-10-22T00:50:43.551Z,2.10
2017-10-22T00:50:47.831Z,2.05
2017-10-22T00:50:52.096Z,2.10
2017-10-22T00:50:56.351Z,2.10
2017-10-22T00:51:00.597Z,2.10
2017-10-22T00:51:04.826Z,2.10
2017-10-22T00:51:09.082Z,2.20
2017-10-22T00:51:13.317Z,2.20
2017-10-22T00:51:17.571Z,2.15
2017-10-22T00:51:21.876Z,2.20
2017-10-22T00:51:26.149Z,2.23
2017-10-22T00:51:30.369Z,2.20
2017-10-22T00:51:34.684Z,2.10
2017-10-22T00:51:38.911Z,2.27
2017-10-22T00:51:43.155Z,2.30
2017-10-22T00:51:47.515Z,2.30
2017-10-22T00:51:53.331Z,2.30
2017-10-22T00:51:57.705Z,2.37
2017-10-22T00:52:01.966Z,2.30
2017-10-22T00:52:06.978Z,2.20
2017-10-22T00:52:11.273Z,2.30
2017-10-22T00:52:16.340Z,2.30
2017-10-22T00:52:20.567Z,2.30
2017-10-22T00:52:24.837Z,2.30
2017-10-22T00:52:29.057Z,2.30
2017-10-22T00:52:33.289Z,2.40
2017-10-22T00:52:37.544Z,2.40
2017-10-22T00:52:41.931Z,2.30
2017-10-22T00:52:46.160Z,2.40
2017-10-22T00:52:50.433Z,2.35
2017-10-22T00:52:54.695Z,2.37
2017-10-22T00:52:58.961Z,2.55
2017-10-22T00:53:03.202Z,2.60
2017-10-22T00:53:08.272Z,2.60
2017-10-22T00:53:12.523Z,2.70
2017-10-22T00:53:17.517Z,2.80
2017-10-22T00:53:21.840Z,2.83
2017-10-22T00:53:26.126Z,2.90
2017-10-22T00:53:30.411Z,2.90
2017-10-22T00:53:35.519Z,2.83
2017-10-22T00:53:39.799Z,2.80
2017-10-22T00:53:44.902Z,2.90
2017-10-22T00:53:49.169Z,3.00
2017-10-22T00:53:53.418Z,3.10
2017-10-22T00:53:57.664Z,3.00
2017-10-22T00:54:01.942Z,3.00
2017-10-22T00:54:06.149Z,3.10
2017-10-22T00:54:10.419Z,3.03
2017-10-22T00:54:14.695Z,3.00
2017-10-22T00:54:18.964Z,3.00
2017-10-22T00:54:23.211Z,2.73
2017-10-22T00:54:27.473Z,2.70
2017-10-22T00:54:31.685Z,2.70
2017-10-22T00:54:36.687Z,2.75
2017-10-22T00:54:40.915Z,2.77
2017-10-22T00:54:45.187Z,2.67
2017-10-22T00:54:49.432Z,2.60
2017-10-22T00:54:53.661Z,2.60
2017-10-22T00:54:58.708Z,2.70
2017-10-22T00:55:02.945Z,2.60
2017-10-22T00:55:07.204Z,2.50
2017-10-22T00:55:11.487Z,2.50
2017-10-22T00:55:15.721Z,2.70
2017-10-22T00:55:20.743Z,2.70
2017-10-22T00:55:24.975Z,2.90
2017-10-22T00:55:29.225Z,3.00
2017-10-22T00:55:33.505Z,3.10
2017-10-22T00:55:37.763Z,3.00
2017-10-22T00:55:42.088Z,3.00
2017-10-22T00:55:46.342Z,2.90
2017-10-22T00:55:51.376Z,3.10
2017-10-22T00:55:55.594Z,3.00
2017-10-22T00:55:59.814Z,3.17
2017-10-22T00:56:04.131Z,3.20
2017-10-22T00:56:08.408Z,3.30
2017-10-22T00:56:12.657Z,3.15
2017-10-22T00:56:16.937Z,3.00
2017-10-22T00:56:21.205Z,3.00
2017-10-22T00:56:25.446Z,3.05
2017-10-22T00:56:29.703Z,3.00
2017-10-22T00:56:33.933Z,3.00
2017-10-22T00:56:38.258Z,3.00
2017-10-22T00:56:42.524Z,3.00
2017-10-22T00:56:46.772Z,3.00
2017-10-22T00:56:51.002Z,2.90
2017-10-22T00:56:55.312Z,3.00
2017-10-22T00:56:59.555Z,2.80
2017-10-22T00:57:03.791Z,2.90
2017-10-22T00:57:08.834Z,2.80
2017-10-22T00:57:13.070Z,2.83
2017-10-22T00:57:17.331Z,2.80
2017-10-22T00:57:21.615Z,2.77
2017-10-22T00:57:26.636Z,2.70
2017-10-22T00:57:30.876Z,2.83
2017-10-22T00:57:35.162Z,2.85
2017-10-22T00:57:39.403Z,3.07
2017-10-22T00:57:44.434Z,3.10
2017-10-22T00:57:49.459Z,3.07
2017-10-22T00:57:53.702Z,3.00
2017-10-22T00:57:57.936Z,3.15
2017-10-22T00:58:02.966Z,3.10
2017-10-22T00:58:07.981Z,3.03
2017-10-22T00:58:12.220Z,3.03
2017-10-22T00:58:16.494Z,3.10
2017-10-22T00:58:20.742Z,3.10
2017-10-22T00:58:25.075Z,3.05
2017-10-22T00:58:30.172Z,2.90
2017-10-22T00:58:34.479Z,2.77
2017-10-22T00:58:38.804Z,2.50
2017-10-22T00:58:43.024Z,2.70
2017-10-22T00:58:47.273Z,2.70
2017-10-22T00:58:51.532Z,2.70
2017-10-22T00:58:55.818Z,2.70
2017-10-22T00:59:00.808Z,2.60
2017-10-22T00:59:05.157Z,2.60
2017-10-22T00:59:10.192Z,2.60
2017-10-22T00:59:15.741Z,2.63
2017-10-22T00:59:19.980Z,2.60
2017-10-22T00:59:24.971Z,2.60
2017-10-22T00:59:29.275Z,2.60
2017-10-22T00:59:33.519Z,2.60
2017-10-22T00:59:37.753Z,2.70
2017-10-22T00:59:42.060Z,2.53
2017-10-22T00:59:46.306Z,2.50
2017-10-22T00:59:51.319Z,2.50
2017-10-22T00:59:56.315Z,2.50
2017-10-22T01:00:00.571Z,2.50
2017-10-22T01:00:04.816Z,2.60
2017-10-22T01:00:09.206Z,2.65
2017-10-22T01:00:13.467Z,2.70
2017-10-22T01:00:17.698Z,2.70
2017-10-22T01:00:22.029Z,2.80
2017-10-22T01:00:26.253Z,2.80
2017-10-22T01:00:30.489Z,2.80
2017-10-22T01:00:34.749Z,2.80
2017-10-22T01:00:39.108Z,2.80
2017-10-22T01:00:43.325Z,2.80
2017-10-22T01:00:48.357Z,2.80
2017-10-22T01:00:53.385Z,3.13
2017-10-22T01:00:57.648Z,3.10
2017-10-22T01:01:01.875Z,3.00
2017-10-22T01:01:06.882Z,2.90
2017-10-22T01:01:11.894Z,2.80
2017-10-22T01:01:16.136Z,2.80
2017-10-22T01:01:20.412Z,2.80
2017-10-22T01:01:25.467Z,2.90
2017-10-22T01:01:29.721Z,2.90
2017-10-22T01:01:33.956Z,2.90
2017-10-22T01:01:38.185Z,3.00
2017-10-22T01:01:42.492Z,3.00
2017-10-22T01:01:46.725Z,2.90
2017-10-22T01:01:50.950Z,2.65
2017-10-22T01:01:55.253Z,2.50
2017-10-22T01:02:00.217Z,2.60
2017-10-22T01:02:04.471Z,2.83
2017-10-22T01:02:08.767Z,2.90